<?xml version="1.0" encoding="UTF-8" standalone="no" ?>
<gpx xmlns="http://www.topografix.com/GPX/1/1" xmlns:xsi="http://www.w3.org/2001/XMLSchema-instance" xsi:schemaLocation="http://www.topografix.com/GPX/1/1 http://www.topografix.com/GPX/1/1/gpx.xsd" version="1.1" creator="VisuGPX - https://www.visugpx.com">
  <metadata>
    <name>Roquecor - boucle par Le Claux, Ferrussac, Le Mas - 9.0 km</name>
    <desc><![CDATA[Roquecor - circuit par Le Claux - Ferrussac - Le Mas - 9.0 km - 261 +]]></desc>
  </metadata>
  <trk>
    <name><![CDATA[Roquecor - boucle par Le Claux, Ferrussac, Le Mas - 9.0 km]]></name>
    <extensions>
      <line xmlns="http://www.topografix.com/GPX/gpx_style/0/2">
        <color>0000FF</color>
        <width>4</width>
      </line>
    </extensions>
    <trkseg>
      <trkpt lat="44.32341" lon="0.94494">
        <ele>214.2</ele>
        <time>2022-02-22T13:56:40+01:00</time>
      </trkpt>
      <trkpt lat="44.3233" lon="0.94508">
        <ele>213.8</ele>
        <time>2022-02-22T13:59:11+01:00</time>
      </trkpt>
      <trkpt lat="44.32318" lon="0.94516">
        <ele>213.6</ele>
        <time>2022-02-22T13:59:21+01:00</time>
      </trkpt>
      <trkpt lat="44.32306" lon="0.94529">
        <ele>213</ele>
        <time>2022-02-22T13:59:32+01:00</time>
      </trkpt>
      <trkpt lat="44.323" lon="0.94547">
        <ele>212.6</ele>
        <time>2022-02-22T13:59:47+01:00</time>
      </trkpt>
      <trkpt lat="44.32294" lon="0.94563">
        <ele>212</ele>
        <time>2022-02-22T14:00:00+01:00</time>
      </trkpt>
      <trkpt lat="44.32281" lon="0.94573">
        <ele>212.2</ele>
        <time>2022-02-22T14:00:10+01:00</time>
      </trkpt>
      <trkpt lat="44.32267" lon="0.94577">
        <ele>212.7</ele>
        <time>2022-02-22T14:00:22+01:00</time>
      </trkpt>
      <trkpt lat="44.32262" lon="0.94595">
        <ele>210.3</ele>
        <time>2022-02-22T14:00:48+01:00</time>
      </trkpt>
      <trkpt lat="44.32253" lon="0.94609">
        <ele>208.1</ele>
        <time>2022-02-22T14:01:29+01:00</time>
      </trkpt>
      <trkpt lat="44.32239" lon="0.94613">
        <ele>208.1</ele>
        <time>2022-02-22T14:01:41+01:00</time>
      </trkpt>
      <trkpt lat="44.32225" lon="0.94614">
        <ele>208.6</ele>
        <time>2022-02-22T14:01:56+01:00</time>
      </trkpt>
      <trkpt lat="44.32211" lon="0.94616">
        <ele>207.7</ele>
        <time>2022-02-22T14:02:49+01:00</time>
      </trkpt>
      <trkpt lat="44.32198" lon="0.94613">
        <ele>209.2</ele>
        <time>2022-02-22T14:03:07+01:00</time>
      </trkpt>
      <trkpt lat="44.32185" lon="0.94617">
        <ele>204.6</ele>
        <time>2022-02-22T14:03:25+01:00</time>
      </trkpt>
      <trkpt lat="44.32172" lon="0.9461">
        <ele>204.8</ele>
        <time>2022-02-22T14:03:46+01:00</time>
      </trkpt>
      <trkpt lat="44.32162" lon="0.94596">
        <ele>205.5</ele>
        <time>2022-02-22T14:04:20+01:00</time>
      </trkpt>
      <trkpt lat="44.3215" lon="0.94587">
        <ele>197.9</ele>
        <time>2022-02-22T14:04:46+01:00</time>
      </trkpt>
      <trkpt lat="44.32136" lon="0.94584">
        <ele>187.5</ele>
        <time>2022-02-22T14:05:09+01:00</time>
      </trkpt>
      <trkpt lat="44.32126" lon="0.94572">
        <ele>184.4</ele>
        <time>2022-02-22T14:05:46+01:00</time>
      </trkpt>
      <trkpt lat="44.32114" lon="0.9456">
        <ele>177.9</ele>
        <time>2022-02-22T14:06:14+01:00</time>
      </trkpt>
      <trkpt lat="44.32104" lon="0.94546">
        <ele>175.5</ele>
        <time>2022-02-22T14:06:27+01:00</time>
      </trkpt>
      <trkpt lat="44.32091" lon="0.94539">
        <ele>170.9</ele>
        <time>2022-02-22T14:07:08+01:00</time>
      </trkpt>
      <trkpt lat="44.32087" lon="0.94557">
        <ele>169</ele>
        <time>2022-02-22T14:07:35+01:00</time>
      </trkpt>
      <trkpt lat="44.32078" lon="0.94572">
        <ele>166.3</ele>
        <time>2022-02-22T14:07:47+01:00</time>
      </trkpt>
      <trkpt lat="44.32073" lon="0.9459">
        <ele>164.3</ele>
        <time>2022-02-22T14:07:59+01:00</time>
      </trkpt>
      <trkpt lat="44.32076" lon="0.94609">
        <ele>164.6</ele>
        <time>2022-02-22T14:08:11+01:00</time>
      </trkpt>
      <trkpt lat="44.32079" lon="0.94629">
        <ele>162.6</ele>
        <time>2022-02-22T14:08:41+01:00</time>
      </trkpt>
      <trkpt lat="44.32085" lon="0.94646">
        <ele>161.1</ele>
        <time>2022-02-22T14:08:52+01:00</time>
      </trkpt>
      <trkpt lat="44.32091" lon="0.94663">
        <ele>159.4</ele>
        <time>2022-02-22T14:09:03+01:00</time>
      </trkpt>
      <trkpt lat="44.32099" lon="0.94679">
        <ele>157.7</ele>
        <time>2022-02-22T14:09:14+01:00</time>
      </trkpt>
      <trkpt lat="44.32106" lon="0.94696">
        <ele>155.8</ele>
        <time>2022-02-22T14:09:25+01:00</time>
      </trkpt>
      <trkpt lat="44.32114" lon="0.94713">
        <ele>152.8</ele>
        <time>2022-02-22T14:09:38+01:00</time>
      </trkpt>
      <trkpt lat="44.3212" lon="0.94731">
        <ele>149.8</ele>
        <time>2022-02-22T14:09:49+01:00</time>
      </trkpt>
      <trkpt lat="44.3212" lon="0.94751">
        <ele>145.8</ele>
        <time>2022-02-22T14:10:05+01:00</time>
      </trkpt>
      <trkpt lat="44.32117" lon="0.9477">
        <ele>141.5</ele>
        <time>2022-02-22T14:10:19+01:00</time>
      </trkpt>
      <trkpt lat="44.32112" lon="0.94788">
        <ele>137.3</ele>
        <time>2022-02-22T14:10:33+01:00</time>
      </trkpt>
      <trkpt lat="44.3211" lon="0.94807">
        <ele>133.8</ele>
        <time>2022-02-22T14:10:46+01:00</time>
      </trkpt>
      <trkpt lat="44.3211" lon="0.94826">
        <ele>131</ele>
        <time>2022-02-22T14:10:56+01:00</time>
      </trkpt>
      <trkpt lat="44.32108" lon="0.94847">
        <ele>128.5</ele>
        <time>2022-02-22T14:11:08+01:00</time>
      </trkpt>
      <trkpt lat="44.32105" lon="0.94866">
        <ele>126.2</ele>
        <time>2022-02-22T14:11:18+01:00</time>
      </trkpt>
      <trkpt lat="44.32103" lon="0.94886">
        <ele>124.3</ele>
        <time>2022-02-22T14:11:33+01:00</time>
      </trkpt>
      <trkpt lat="44.32098" lon="0.94904">
        <ele>123.5</ele>
        <time>2022-02-22T14:11:42+01:00</time>
      </trkpt>
      <trkpt lat="44.32095" lon="0.94923">
        <ele>123</ele>
        <time>2022-02-22T14:11:53+01:00</time>
      </trkpt>
      <trkpt lat="44.32089" lon="0.94941">
        <ele>123</ele>
        <time>2022-02-22T14:12:01+01:00</time>
      </trkpt>
      <trkpt lat="44.32083" lon="0.94959">
        <ele>123.5</ele>
        <time>2022-02-22T14:12:10+01:00</time>
      </trkpt>
      <trkpt lat="44.32078" lon="0.94978">
        <ele>123.6</ele>
        <time>2022-02-22T14:12:21+01:00</time>
      </trkpt>
      <trkpt lat="44.32076" lon="0.94997">
        <ele>123.1</ele>
        <time>2022-02-22T14:13:13+01:00</time>
      </trkpt>
      <trkpt lat="44.3207" lon="0.95015">
        <ele>123</ele>
        <time>2022-02-22T14:13:24+01:00</time>
      </trkpt>
      <trkpt lat="44.32067" lon="0.95035">
        <ele>123.3</ele>
        <time>2022-02-22T14:13:40+01:00</time>
      </trkpt>
      <trkpt lat="44.3206" lon="0.95053">
        <ele>124.5</ele>
        <time>2022-02-22T14:13:52+01:00</time>
      </trkpt>
      <trkpt lat="44.32053" lon="0.9507">
        <ele>124.4</ele>
        <time>2022-02-22T14:14:05+01:00</time>
      </trkpt>
      <trkpt lat="44.32047" lon="0.95088">
        <ele>123.6</ele>
        <time>2022-02-22T14:14:16+01:00</time>
      </trkpt>
      <trkpt lat="44.32043" lon="0.95108">
        <ele>123.1</ele>
        <time>2022-02-22T14:14:28+01:00</time>
      </trkpt>
      <trkpt lat="44.32036" lon="0.95125">
        <ele>123.7</ele>
        <time>2022-02-22T14:14:37+01:00</time>
      </trkpt>
      <trkpt lat="44.32031" lon="0.95143">
        <ele>124.8</ele>
        <time>2022-02-22T14:14:48+01:00</time>
      </trkpt>
      <trkpt lat="44.32028" lon="0.95163">
        <ele>125</ele>
        <time>2022-02-22T14:14:57+01:00</time>
      </trkpt>
      <trkpt lat="44.32014" lon="0.95161">
        <ele>124.4</ele>
        <time>2022-02-22T14:15:17+01:00</time>
      </trkpt>
      <trkpt lat="44.32002" lon="0.95151">
        <ele>123.5</ele>
        <time>2022-02-22T14:15:49+01:00</time>
      </trkpt>
      <trkpt lat="44.31989" lon="0.95141">
        <ele>123.4</ele>
        <time>2022-02-22T14:16:00+01:00</time>
      </trkpt>
      <trkpt lat="44.31974" lon="0.95139">
        <ele>123.9</ele>
        <time>2022-02-22T14:16:10+01:00</time>
      </trkpt>
      <trkpt lat="44.3196" lon="0.95139">
        <ele>123.6</ele>
        <time>2022-02-22T14:16:20+01:00</time>
      </trkpt>
      <trkpt lat="44.31946" lon="0.95142">
        <ele>123</ele>
        <time>2022-02-22T14:16:30+01:00</time>
      </trkpt>
      <trkpt lat="44.31932" lon="0.95145">
        <ele>123</ele>
        <time>2022-02-22T14:16:41+01:00</time>
      </trkpt>
      <trkpt lat="44.31917" lon="0.95151">
        <ele>123</ele>
        <time>2022-02-22T14:16:51+01:00</time>
      </trkpt>
      <trkpt lat="44.31903" lon="0.95153">
        <ele>122.8</ele>
        <time>2022-02-22T14:17:01+01:00</time>
      </trkpt>
      <trkpt lat="44.31889" lon="0.95152">
        <ele>122.5</ele>
        <time>2022-02-22T14:17:10+01:00</time>
      </trkpt>
      <trkpt lat="44.31876" lon="0.95148">
        <ele>122.8</ele>
        <time>2022-02-22T14:17:19+01:00</time>
      </trkpt>
      <trkpt lat="44.31863" lon="0.9514">
        <ele>123</ele>
        <time>2022-02-22T14:17:29+01:00</time>
      </trkpt>
      <trkpt lat="44.31852" lon="0.95126">
        <ele>122.7</ele>
        <time>2022-02-22T14:17:40+01:00</time>
      </trkpt>
      <trkpt lat="44.31841" lon="0.95115">
        <ele>122.8</ele>
        <time>2022-02-22T14:17:50+01:00</time>
      </trkpt>
      <trkpt lat="44.3183" lon="0.95102">
        <ele>122.7</ele>
        <time>2022-02-22T14:18:10+01:00</time>
      </trkpt>
      <trkpt lat="44.31818" lon="0.95089">
        <ele>122.6</ele>
        <time>2022-02-22T14:18:21+01:00</time>
      </trkpt>
      <trkpt lat="44.31807" lon="0.95078">
        <ele>122.7</ele>
        <time>2022-02-22T14:18:31+01:00</time>
      </trkpt>
      <trkpt lat="44.31796" lon="0.95066">
        <ele>122.4</ele>
        <time>2022-02-22T14:18:42+01:00</time>
      </trkpt>
      <trkpt lat="44.31784" lon="0.95055">
        <ele>122</ele>
        <time>2022-02-22T14:18:54+01:00</time>
      </trkpt>
      <trkpt lat="44.31773" lon="0.95044">
        <ele>121.7</ele>
        <time>2022-02-22T14:19:06+01:00</time>
      </trkpt>
      <trkpt lat="44.31759" lon="0.95038">
        <ele>122</ele>
        <time>2022-02-22T14:19:17+01:00</time>
      </trkpt>
      <trkpt lat="44.31746" lon="0.95028">
        <ele>122.2</ele>
        <time>2022-02-22T14:19:29+01:00</time>
      </trkpt>
      <trkpt lat="44.31733" lon="0.95021">
        <ele>122.2</ele>
        <time>2022-02-22T14:19:39+01:00</time>
      </trkpt>
      <trkpt lat="44.31721" lon="0.95012">
        <ele>121.9</ele>
        <time>2022-02-22T14:19:49+01:00</time>
      </trkpt>
      <trkpt lat="44.31707" lon="0.95006">
        <ele>122</ele>
        <time>2022-02-22T14:20:00+01:00</time>
      </trkpt>
      <trkpt lat="44.31694" lon="0.95">
        <ele>122</ele>
        <time>2022-02-22T14:20:10+01:00</time>
      </trkpt>
      <trkpt lat="44.31681" lon="0.94991">
        <ele>122</ele>
        <time>2022-02-22T14:20:20+01:00</time>
      </trkpt>
      <trkpt lat="44.31667" lon="0.94983">
        <ele>121.8</ele>
        <time>2022-02-22T14:20:30+01:00</time>
      </trkpt>
      <trkpt lat="44.31654" lon="0.94973">
        <ele>121.9</ele>
        <time>2022-02-22T14:20:41+01:00</time>
      </trkpt>
      <trkpt lat="44.31641" lon="0.94966">
        <ele>122.4</ele>
        <time>2022-02-22T14:21:07+01:00</time>
      </trkpt>
      <trkpt lat="44.31631" lon="0.94952">
        <ele>121.8</ele>
        <time>2022-02-22T14:21:19+01:00</time>
      </trkpt>
      <trkpt lat="44.31619" lon="0.9494">
        <ele>121.5</ele>
        <time>2022-02-22T14:21:28+01:00</time>
      </trkpt>
      <trkpt lat="44.31608" lon="0.94929">
        <ele>121.1</ele>
        <time>2022-02-22T14:21:37+01:00</time>
      </trkpt>
      <trkpt lat="44.31596" lon="0.94917">
        <ele>121.1</ele>
        <time>2022-02-22T14:21:47+01:00</time>
      </trkpt>
      <trkpt lat="44.31584" lon="0.94906">
        <ele>121.2</ele>
        <time>2022-02-22T14:21:56+01:00</time>
      </trkpt>
      <trkpt lat="44.31572" lon="0.94894">
        <ele>120.8</ele>
        <time>2022-02-22T14:22:07+01:00</time>
      </trkpt>
      <trkpt lat="44.3156" lon="0.94881">
        <ele>120.6</ele>
        <time>2022-02-22T14:22:18+01:00</time>
      </trkpt>
      <trkpt lat="44.31548" lon="0.94873">
        <ele>120.7</ele>
        <time>2022-02-22T14:22:28+01:00</time>
      </trkpt>
      <trkpt lat="44.31537" lon="0.94862">
        <ele>120.7</ele>
        <time>2022-02-22T14:22:38+01:00</time>
      </trkpt>
      <trkpt lat="44.31526" lon="0.9485">
        <ele>120.7</ele>
        <time>2022-02-22T14:23:15+01:00</time>
      </trkpt>
      <trkpt lat="44.31515" lon="0.94838">
        <ele>120.6</ele>
        <time>2022-02-22T14:23:25+01:00</time>
      </trkpt>
      <trkpt lat="44.31504" lon="0.94827">
        <ele>120.7</ele>
        <time>2022-02-22T14:23:36+01:00</time>
      </trkpt>
      <trkpt lat="44.31494" lon="0.94843">
        <ele>121.6</ele>
        <time>2022-02-22T14:24:08+01:00</time>
      </trkpt>
      <trkpt lat="44.31486" lon="0.94859">
        <ele>122.9</ele>
        <time>2022-02-22T14:24:20+01:00</time>
      </trkpt>
      <trkpt lat="44.31481" lon="0.94878">
        <ele>125.4</ele>
        <time>2022-02-22T14:24:31+01:00</time>
      </trkpt>
      <trkpt lat="44.31474" lon="0.94894">
        <ele>128.4</ele>
        <time>2022-02-22T14:25:11+01:00</time>
      </trkpt>
      <trkpt lat="44.31468" lon="0.94913">
        <ele>130.9</ele>
        <time>2022-02-22T14:25:23+01:00</time>
      </trkpt>
      <trkpt lat="44.31461" lon="0.9493">
        <ele>133.6</ele>
        <time>2022-02-22T14:26:08+01:00</time>
      </trkpt>
      <trkpt lat="44.31448" lon="0.94922">
        <ele>133.4</ele>
        <time>2022-02-22T14:30:19+01:00</time>
      </trkpt>
      <trkpt lat="44.31437" lon="0.94911">
        <ele>133.2</ele>
        <time>2022-02-22T14:30:30+01:00</time>
      </trkpt>
      <trkpt lat="44.31423" lon="0.94905">
        <ele>133.8</ele>
        <time>2022-02-22T14:30:39+01:00</time>
      </trkpt>
      <trkpt lat="44.31408" lon="0.94902">
        <ele>134.8</ele>
        <time>2022-02-22T14:30:47+01:00</time>
      </trkpt>
      <trkpt lat="44.31394" lon="0.949">
        <ele>136</ele>
        <time>2022-02-22T14:30:59+01:00</time>
      </trkpt>
      <trkpt lat="44.3138" lon="0.949">
        <ele>137.4</ele>
        <time>2022-02-22T14:31:09+01:00</time>
      </trkpt>
      <trkpt lat="44.31367" lon="0.94899">
        <ele>138.3</ele>
        <time>2022-02-22T14:31:18+01:00</time>
      </trkpt>
      <trkpt lat="44.31353" lon="0.94897">
        <ele>138.6</ele>
        <time>2022-02-22T14:31:29+01:00</time>
      </trkpt>
      <trkpt lat="44.31339" lon="0.94894">
        <ele>138.2</ele>
        <time>2022-02-22T14:31:42+01:00</time>
      </trkpt>
      <trkpt lat="44.31326" lon="0.94889">
        <ele>138.4</ele>
        <time>2022-02-22T14:31:54+01:00</time>
      </trkpt>
      <trkpt lat="44.31313" lon="0.94881">
        <ele>139.1</ele>
        <time>2022-02-22T14:32:04+01:00</time>
      </trkpt>
      <trkpt lat="44.31301" lon="0.94871">
        <ele>139</ele>
        <time>2022-02-22T14:32:13+01:00</time>
      </trkpt>
      <trkpt lat="44.31289" lon="0.94862">
        <ele>140.3</ele>
        <time>2022-02-22T14:32:23+01:00</time>
      </trkpt>
      <trkpt lat="44.31276" lon="0.94855">
        <ele>142.4</ele>
        <time>2022-02-22T14:32:32+01:00</time>
      </trkpt>
      <trkpt lat="44.31263" lon="0.94847">
        <ele>142.1</ele>
        <time>2022-02-22T14:33:02+01:00</time>
      </trkpt>
      <trkpt lat="44.31249" lon="0.94842">
        <ele>141.8</ele>
        <time>2022-02-22T14:33:13+01:00</time>
      </trkpt>
      <trkpt lat="44.31235" lon="0.94838">
        <ele>139.9</ele>
        <time>2022-02-22T14:33:24+01:00</time>
      </trkpt>
      <trkpt lat="44.31222" lon="0.94846">
        <ele>139.4</ele>
        <time>2022-02-22T14:33:49+01:00</time>
      </trkpt>
      <trkpt lat="44.31211" lon="0.94859">
        <ele>139.7</ele>
        <time>2022-02-22T14:33:59+01:00</time>
      </trkpt>
      <trkpt lat="44.31202" lon="0.94873">
        <ele>139.9</ele>
        <time>2022-02-22T14:34:09+01:00</time>
      </trkpt>
      <trkpt lat="44.3119" lon="0.94884">
        <ele>140.3</ele>
        <time>2022-02-22T14:34:19+01:00</time>
      </trkpt>
      <trkpt lat="44.31178" lon="0.94894">
        <ele>140.3</ele>
        <time>2022-02-22T14:34:29+01:00</time>
      </trkpt>
      <trkpt lat="44.31167" lon="0.94907">
        <ele>138.8</ele>
        <time>2022-02-22T14:34:44+01:00</time>
      </trkpt>
      <trkpt lat="44.31157" lon="0.9492">
        <ele>137</ele>
        <time>2022-02-22T14:35:06+01:00</time>
      </trkpt>
      <trkpt lat="44.31144" lon="0.94928">
        <ele>135.9</ele>
        <time>2022-02-22T14:35:19+01:00</time>
      </trkpt>
      <trkpt lat="44.31131" lon="0.94936">
        <ele>135.2</ele>
        <time>2022-02-22T14:36:25+01:00</time>
      </trkpt>
      <trkpt lat="44.31124" lon="0.94953">
        <ele>136.4</ele>
        <time>2022-02-22T14:38:02+01:00</time>
      </trkpt>
      <trkpt lat="44.31113" lon="0.94965">
        <ele>137.9</ele>
        <time>2022-02-22T14:38:13+01:00</time>
      </trkpt>
      <trkpt lat="44.31103" lon="0.9498">
        <ele>139.7</ele>
        <time>2022-02-22T14:38:25+01:00</time>
      </trkpt>
      <trkpt lat="44.31099" lon="0.94999">
        <ele>142</ele>
        <time>2022-02-22T14:38:47+01:00</time>
      </trkpt>
      <trkpt lat="44.31097" lon="0.95018">
        <ele>143.5</ele>
        <time>2022-02-22T14:38:59+01:00</time>
      </trkpt>
      <trkpt lat="44.31096" lon="0.95037">
        <ele>145.3</ele>
        <time>2022-02-22T14:39:29+01:00</time>
      </trkpt>
      <trkpt lat="44.3109" lon="0.95055">
        <ele>146.4</ele>
        <time>2022-02-22T14:39:41+01:00</time>
      </trkpt>
      <trkpt lat="44.31083" lon="0.95071">
        <ele>148.2</ele>
        <time>2022-02-22T14:41:56+01:00</time>
      </trkpt>
      <trkpt lat="44.31077" lon="0.9509">
        <ele>149.3</ele>
        <time>2022-02-22T14:42:07+01:00</time>
      </trkpt>
      <trkpt lat="44.31073" lon="0.95108">
        <ele>150.4</ele>
        <time>2022-02-22T14:42:21+01:00</time>
      </trkpt>
      <trkpt lat="44.31068" lon="0.95127">
        <ele>150.9</ele>
        <time>2022-02-22T14:43:10+01:00</time>
      </trkpt>
      <trkpt lat="44.31067" lon="0.95147">
        <ele>153</ele>
        <time>2022-02-22T14:43:23+01:00</time>
      </trkpt>
      <trkpt lat="44.31063" lon="0.95165">
        <ele>153.4</ele>
        <time>2022-02-22T14:43:34+01:00</time>
      </trkpt>
      <trkpt lat="44.31064" lon="0.95185">
        <ele>154.9</ele>
        <time>2022-02-22T14:45:34+01:00</time>
      </trkpt>
      <trkpt lat="44.31076" lon="0.95195">
        <ele>157.7</ele>
        <time>2022-02-22T14:45:45+01:00</time>
      </trkpt>
      <trkpt lat="44.31088" lon="0.95205">
        <ele>160.7</ele>
        <time>2022-02-22T14:45:58+01:00</time>
      </trkpt>
      <trkpt lat="44.31101" lon="0.95215">
        <ele>163.7</ele>
        <time>2022-02-22T14:46:14+01:00</time>
      </trkpt>
      <trkpt lat="44.31113" lon="0.95227">
        <ele>166.3</ele>
        <time>2022-02-22T14:47:34+01:00</time>
      </trkpt>
      <trkpt lat="44.31126" lon="0.95236">
        <ele>168.3</ele>
        <time>2022-02-22T14:47:46+01:00</time>
      </trkpt>
      <trkpt lat="44.31139" lon="0.95243">
        <ele>170.9</ele>
        <time>2022-02-22T14:47:58+01:00</time>
      </trkpt>
      <trkpt lat="44.31152" lon="0.95251">
        <ele>177.2</ele>
        <time>2022-02-22T14:48:58+01:00</time>
      </trkpt>
      <trkpt lat="44.31164" lon="0.95262">
        <ele>181.7</ele>
        <time>2022-02-22T14:49:40+01:00</time>
      </trkpt>
      <trkpt lat="44.31166" lon="0.95281">
        <ele>182.9</ele>
        <time>2022-02-22T14:49:52+01:00</time>
      </trkpt>
      <trkpt lat="44.31165" lon="0.953">
        <ele>183.8</ele>
        <time>2022-02-22T14:50:04+01:00</time>
      </trkpt>
      <trkpt lat="44.31165" lon="0.95319">
        <ele>184.6</ele>
        <time>2022-02-22T14:50:52+01:00</time>
      </trkpt>
      <trkpt lat="44.31159" lon="0.95337">
        <ele>182.8</ele>
        <time>2022-02-22T14:51:07+01:00</time>
      </trkpt>
      <trkpt lat="44.31154" lon="0.95355">
        <ele>181.8</ele>
        <time>2022-02-22T14:51:19+01:00</time>
      </trkpt>
      <trkpt lat="44.31149" lon="0.95374">
        <ele>181.7</ele>
        <time>2022-02-22T14:51:29+01:00</time>
      </trkpt>
      <trkpt lat="44.31146" lon="0.95393">
        <ele>182.6</ele>
        <time>2022-02-22T14:51:38+01:00</time>
      </trkpt>
      <trkpt lat="44.3114" lon="0.9541">
        <ele>182.6</ele>
        <time>2022-02-22T14:51:46+01:00</time>
      </trkpt>
      <trkpt lat="44.31133" lon="0.95426">
        <ele>183.1</ele>
        <time>2022-02-22T14:51:57+01:00</time>
      </trkpt>
      <trkpt lat="44.31126" lon="0.95444">
        <ele>183.4</ele>
        <time>2022-02-22T14:52:09+01:00</time>
      </trkpt>
      <trkpt lat="44.3112" lon="0.95461">
        <ele>183.3</ele>
        <time>2022-02-22T14:52:20+01:00</time>
      </trkpt>
      <trkpt lat="44.31113" lon="0.95478">
        <ele>182.6</ele>
        <time>2022-02-22T14:52:47+01:00</time>
      </trkpt>
      <trkpt lat="44.31107" lon="0.95495">
        <ele>182.7</ele>
        <time>2022-02-22T14:53:06+01:00</time>
      </trkpt>
      <trkpt lat="44.311" lon="0.95512">
        <ele>181.8</ele>
        <time>2022-02-22T14:53:14+01:00</time>
      </trkpt>
      <trkpt lat="44.31099" lon="0.95532">
        <ele>182.3</ele>
        <time>2022-02-22T14:53:26+01:00</time>
      </trkpt>
      <trkpt lat="44.31095" lon="0.95551">
        <ele>181.6</ele>
        <time>2022-02-22T14:53:38+01:00</time>
      </trkpt>
      <trkpt lat="44.31093" lon="0.9557">
        <ele>182.2</ele>
        <time>2022-02-22T14:53:49+01:00</time>
      </trkpt>
      <trkpt lat="44.31088" lon="0.95588">
        <ele>181.7</ele>
        <time>2022-02-22T14:54:02+01:00</time>
      </trkpt>
      <trkpt lat="44.31081" lon="0.95604">
        <ele>179.9</ele>
        <time>2022-02-22T14:54:12+01:00</time>
      </trkpt>
      <trkpt lat="44.31073" lon="0.95621">
        <ele>179.3</ele>
        <time>2022-02-22T14:54:21+01:00</time>
      </trkpt>
      <trkpt lat="44.3107" lon="0.9564">
        <ele>180.3</ele>
        <time>2022-02-22T14:54:32+01:00</time>
      </trkpt>
      <trkpt lat="44.31066" lon="0.95658">
        <ele>181.9</ele>
        <time>2022-02-22T14:54:50+01:00</time>
      </trkpt>
      <trkpt lat="44.31061" lon="0.95676">
        <ele>183.4</ele>
        <time>2022-02-22T14:55:23+01:00</time>
      </trkpt>
      <trkpt lat="44.31055" lon="0.95693">
        <ele>184.6</ele>
        <time>2022-02-22T14:55:33+01:00</time>
      </trkpt>
      <trkpt lat="44.31047" lon="0.95709">
        <ele>184.1</ele>
        <time>2022-02-22T14:56:12+01:00</time>
      </trkpt>
      <trkpt lat="44.3104" lon="0.95727">
        <ele>184.1</ele>
        <time>2022-02-22T14:56:25+01:00</time>
      </trkpt>
      <trkpt lat="44.31033" lon="0.95744">
        <ele>183.6</ele>
        <time>2022-02-22T14:56:38+01:00</time>
      </trkpt>
      <trkpt lat="44.31026" lon="0.95762">
        <ele>183.8</ele>
        <time>2022-02-22T14:56:50+01:00</time>
      </trkpt>
      <trkpt lat="44.31019" lon="0.9578">
        <ele>184.5</ele>
        <time>2022-02-22T14:57:01+01:00</time>
      </trkpt>
      <trkpt lat="44.31013" lon="0.95798">
        <ele>185.5</ele>
        <time>2022-02-22T14:57:11+01:00</time>
      </trkpt>
      <trkpt lat="44.31012" lon="0.95818">
        <ele>187.8</ele>
        <time>2022-02-22T14:57:19+01:00</time>
      </trkpt>
      <trkpt lat="44.31011" lon="0.95837">
        <ele>189.6</ele>
        <time>2022-02-22T14:57:28+01:00</time>
      </trkpt>
      <trkpt lat="44.31012" lon="0.95857">
        <ele>192.2</ele>
        <time>2022-02-22T14:57:38+01:00</time>
      </trkpt>
      <trkpt lat="44.31015" lon="0.95877">
        <ele>192.6</ele>
        <time>2022-02-22T14:58:19+01:00</time>
      </trkpt>
      <trkpt lat="44.3102" lon="0.95895">
        <ele>193.5</ele>
        <time>2022-02-22T14:58:30+01:00</time>
      </trkpt>
      <trkpt lat="44.31022" lon="0.95914">
        <ele>193.2</ele>
        <time>2022-02-22T14:58:42+01:00</time>
      </trkpt>
      <trkpt lat="44.31027" lon="0.95931">
        <ele>195.3</ele>
        <time>2022-02-22T14:58:53+01:00</time>
      </trkpt>
      <trkpt lat="44.31033" lon="0.95948">
        <ele>198.1</ele>
        <time>2022-02-22T14:59:05+01:00</time>
      </trkpt>
      <trkpt lat="44.31039" lon="0.95966">
        <ele>201.7</ele>
        <time>2022-02-22T15:00:03+01:00</time>
      </trkpt>
      <trkpt lat="44.31042" lon="0.95985">
        <ele>203.9</ele>
        <time>2022-02-22T15:00:17+01:00</time>
      </trkpt>
      <trkpt lat="44.31047" lon="0.96004">
        <ele>206.5</ele>
        <time>2022-02-22T15:00:33+01:00</time>
      </trkpt>
      <trkpt lat="44.31047" lon="0.96023">
        <ele>209.9</ele>
        <time>2022-02-22T15:02:05+01:00</time>
      </trkpt>
      <trkpt lat="44.31048" lon="0.96042">
        <ele>211.4</ele>
        <time>2022-02-22T15:03:37+01:00</time>
      </trkpt>
      <trkpt lat="44.31041" lon="0.96059">
        <ele>212.1</ele>
        <time>2022-02-22T15:03:48+01:00</time>
      </trkpt>
      <trkpt lat="44.3104" lon="0.96079">
        <ele>212.8</ele>
        <time>2022-02-22T15:03:57+01:00</time>
      </trkpt>
      <trkpt lat="44.31042" lon="0.96098">
        <ele>213.8</ele>
        <time>2022-02-22T15:04:06+01:00</time>
      </trkpt>
      <trkpt lat="44.31033" lon="0.96113">
        <ele>214.2</ele>
        <time>2022-02-22T15:04:18+01:00</time>
      </trkpt>
      <trkpt lat="44.31024" lon="0.96127">
        <ele>214.4</ele>
        <time>2022-02-22T15:04:29+01:00</time>
      </trkpt>
      <trkpt lat="44.31025" lon="0.96146">
        <ele>214.9</ele>
        <time>2022-02-22T15:04:38+01:00</time>
      </trkpt>
      <trkpt lat="44.31027" lon="0.96166">
        <ele>215</ele>
        <time>2022-02-22T15:07:18+01:00</time>
      </trkpt>
      <trkpt lat="44.31032" lon="0.96184">
        <ele>216.4</ele>
        <time>2022-02-22T15:07:27+01:00</time>
      </trkpt>
      <trkpt lat="44.31039" lon="0.96199">
        <ele>217.7</ele>
        <time>2022-02-22T15:07:37+01:00</time>
      </trkpt>
      <trkpt lat="44.31045" lon="0.96216">
        <ele>218.9</ele>
        <time>2022-02-22T15:07:48+01:00</time>
      </trkpt>
      <trkpt lat="44.31034" lon="0.96229">
        <ele>219.4</ele>
        <time>2022-02-22T15:07:59+01:00</time>
      </trkpt>
      <trkpt lat="44.31022" lon="0.9624">
        <ele>220.4</ele>
        <time>2022-02-22T15:08:09+01:00</time>
      </trkpt>
      <trkpt lat="44.31013" lon="0.96257">
        <ele>221.5</ele>
        <time>2022-02-22T15:08:20+01:00</time>
      </trkpt>
      <trkpt lat="44.31014" lon="0.96276">
        <ele>223.4</ele>
        <time>2022-02-22T15:09:37+01:00</time>
      </trkpt>
      <trkpt lat="44.31022" lon="0.96292">
        <ele>224.3</ele>
        <time>2022-02-22T15:09:48+01:00</time>
      </trkpt>
      <trkpt lat="44.31032" lon="0.96305">
        <ele>225.1</ele>
        <time>2022-02-22T15:09:58+01:00</time>
      </trkpt>
      <trkpt lat="44.31042" lon="0.96321">
        <ele>226</ele>
        <time>2022-02-22T15:10:08+01:00</time>
      </trkpt>
      <trkpt lat="44.31051" lon="0.96335">
        <ele>226.9</ele>
        <time>2022-02-22T15:10:20+01:00</time>
      </trkpt>
      <trkpt lat="44.3106" lon="0.96348">
        <ele>227.7</ele>
        <time>2022-02-22T15:10:29+01:00</time>
      </trkpt>
      <trkpt lat="44.3107" lon="0.96363">
        <ele>228.5</ele>
        <time>2022-02-22T15:10:40+01:00</time>
      </trkpt>
      <trkpt lat="44.31081" lon="0.96375">
        <ele>228.9</ele>
        <time>2022-02-22T15:10:51+01:00</time>
      </trkpt>
      <trkpt lat="44.31091" lon="0.9639">
        <ele>229</ele>
        <time>2022-02-22T15:11:02+01:00</time>
      </trkpt>
      <trkpt lat="44.31102" lon="0.96402">
        <ele>229</ele>
        <time>2022-02-22T15:11:12+01:00</time>
      </trkpt>
      <trkpt lat="44.31112" lon="0.96415">
        <ele>229</ele>
        <time>2022-02-22T15:11:22+01:00</time>
      </trkpt>
      <trkpt lat="44.31122" lon="0.96429">
        <ele>228.2</ele>
        <time>2022-02-22T15:11:33+01:00</time>
      </trkpt>
      <trkpt lat="44.31126" lon="0.96447">
        <ele>227.3</ele>
        <time>2022-02-22T15:12:05+01:00</time>
      </trkpt>
      <trkpt lat="44.31134" lon="0.96463">
        <ele>226.4</ele>
        <time>2022-02-22T15:12:17+01:00</time>
      </trkpt>
      <trkpt lat="44.31145" lon="0.96476">
        <ele>226.3</ele>
        <time>2022-02-22T15:12:35+01:00</time>
      </trkpt>
      <trkpt lat="44.31153" lon="0.96491">
        <ele>226.3</ele>
        <time>2022-02-22T15:12:45+01:00</time>
      </trkpt>
      <trkpt lat="44.31166" lon="0.96501">
        <ele>226.9</ele>
        <time>2022-02-22T15:12:56+01:00</time>
      </trkpt>
      <trkpt lat="44.31176" lon="0.96514">
        <ele>227.7</ele>
        <time>2022-02-22T15:13:07+01:00</time>
      </trkpt>
      <trkpt lat="44.31189" lon="0.96523">
        <ele>228.6</ele>
        <time>2022-02-22T15:13:17+01:00</time>
      </trkpt>
      <trkpt lat="44.312" lon="0.96532">
        <ele>229.4</ele>
        <time>2022-02-22T15:13:27+01:00</time>
      </trkpt>
      <trkpt lat="44.31213" lon="0.96543">
        <ele>230.3</ele>
        <time>2022-02-22T15:13:37+01:00</time>
      </trkpt>
      <trkpt lat="44.31225" lon="0.96553">
        <ele>231.1</ele>
        <time>2022-02-22T15:13:49+01:00</time>
      </trkpt>
      <trkpt lat="44.31238" lon="0.96557">
        <ele>231.6</ele>
        <time>2022-02-22T15:14:00+01:00</time>
      </trkpt>
      <trkpt lat="44.3125" lon="0.96564">
        <ele>232.7</ele>
        <time>2022-02-22T15:14:11+01:00</time>
      </trkpt>
      <trkpt lat="44.31264" lon="0.96573">
        <ele>233.6</ele>
        <time>2022-02-22T15:14:22+01:00</time>
      </trkpt>
      <trkpt lat="44.31276" lon="0.96583">
        <ele>234</ele>
        <time>2022-02-22T15:14:32+01:00</time>
      </trkpt>
      <trkpt lat="44.31289" lon="0.96591">
        <ele>234.5</ele>
        <time>2022-02-22T15:14:51+01:00</time>
      </trkpt>
      <trkpt lat="44.31303" lon="0.96599">
        <ele>235.4</ele>
        <time>2022-02-22T15:15:40+01:00</time>
      </trkpt>
      <trkpt lat="44.31307" lon="0.96616">
        <ele>235.9</ele>
        <time>2022-02-22T15:15:50+01:00</time>
      </trkpt>
      <trkpt lat="44.31307" lon="0.96635">
        <ele>235.9</ele>
        <time>2022-02-22T15:16:00+01:00</time>
      </trkpt>
      <trkpt lat="44.31305" lon="0.96654">
        <ele>236</ele>
        <time>2022-02-22T15:16:12+01:00</time>
      </trkpt>
      <trkpt lat="44.31302" lon="0.96672">
        <ele>236</ele>
        <time>2022-02-22T15:16:23+01:00</time>
      </trkpt>
      <trkpt lat="44.31303" lon="0.96692">
        <ele>236</ele>
        <time>2022-02-22T15:16:36+01:00</time>
      </trkpt>
      <trkpt lat="44.31305" lon="0.96711">
        <ele>236</ele>
        <time>2022-02-22T15:16:52+01:00</time>
      </trkpt>
      <trkpt lat="44.313" lon="0.9673">
        <ele>236.2</ele>
        <time>2022-02-22T15:17:37+01:00</time>
      </trkpt>
      <trkpt lat="44.31304" lon="0.96748">
        <ele>236.9</ele>
        <time>2022-02-22T15:18:10+01:00</time>
      </trkpt>
      <trkpt lat="44.31302" lon="0.96768">
        <ele>237</ele>
        <time>2022-02-22T15:18:21+01:00</time>
      </trkpt>
      <trkpt lat="44.31301" lon="0.96789">
        <ele>237.3</ele>
        <time>2022-02-22T15:18:31+01:00</time>
      </trkpt>
      <trkpt lat="44.313" lon="0.96809">
        <ele>237.8</ele>
        <time>2022-02-22T15:18:40+01:00</time>
      </trkpt>
      <trkpt lat="44.313" lon="0.96828">
        <ele>237.8</ele>
        <time>2022-02-22T15:18:50+01:00</time>
      </trkpt>
      <trkpt lat="44.313" lon="0.96849">
        <ele>238.4</ele>
        <time>2022-02-22T15:18:59+01:00</time>
      </trkpt>
      <trkpt lat="44.31301" lon="0.96869">
        <ele>238.8</ele>
        <time>2022-02-22T15:19:08+01:00</time>
      </trkpt>
      <trkpt lat="44.31301" lon="0.9689">
        <ele>238.8</ele>
        <time>2022-02-22T15:19:17+01:00</time>
      </trkpt>
      <trkpt lat="44.31302" lon="0.96909">
        <ele>238.9</ele>
        <time>2022-02-22T15:19:26+01:00</time>
      </trkpt>
      <trkpt lat="44.31304" lon="0.96929">
        <ele>239.4</ele>
        <time>2022-02-22T15:19:36+01:00</time>
      </trkpt>
      <trkpt lat="44.31305" lon="0.96949">
        <ele>240</ele>
        <time>2022-02-22T15:19:45+01:00</time>
      </trkpt>
      <trkpt lat="44.31306" lon="0.96969">
        <ele>240</ele>
        <time>2022-02-22T15:19:55+01:00</time>
      </trkpt>
      <trkpt lat="44.31306" lon="0.96989">
        <ele>240.6</ele>
        <time>2022-02-22T15:20:06+01:00</time>
      </trkpt>
      <trkpt lat="44.31309" lon="0.9701">
        <ele>241.2</ele>
        <time>2022-02-22T15:20:16+01:00</time>
      </trkpt>
      <trkpt lat="44.31309" lon="0.9703">
        <ele>242</ele>
        <time>2022-02-22T15:20:26+01:00</time>
      </trkpt>
      <trkpt lat="44.31308" lon="0.9705">
        <ele>243.4</ele>
        <time>2022-02-22T15:20:36+01:00</time>
      </trkpt>
      <trkpt lat="44.31303" lon="0.97069">
        <ele>244.4</ele>
        <time>2022-02-22T15:21:15+01:00</time>
      </trkpt>
      <trkpt lat="44.313" lon="0.97088">
        <ele>245.2</ele>
        <time>2022-02-22T15:21:24+01:00</time>
      </trkpt>
      <trkpt lat="44.31296" lon="0.97107">
        <ele>246.2</ele>
        <time>2022-02-22T15:21:35+01:00</time>
      </trkpt>
      <trkpt lat="44.31288" lon="0.97124">
        <ele>246.9</ele>
        <time>2022-02-22T15:21:46+01:00</time>
      </trkpt>
      <trkpt lat="44.31279" lon="0.9714">
        <ele>247.9</ele>
        <time>2022-02-22T15:21:56+01:00</time>
      </trkpt>
      <trkpt lat="44.31269" lon="0.97154">
        <ele>248.7</ele>
        <time>2022-02-22T15:22:08+01:00</time>
      </trkpt>
      <trkpt lat="44.31259" lon="0.97166">
        <ele>249.7</ele>
        <time>2022-02-22T15:22:18+01:00</time>
      </trkpt>
      <trkpt lat="44.31249" lon="0.9718">
        <ele>250.5</ele>
        <time>2022-02-22T15:22:28+01:00</time>
      </trkpt>
      <trkpt lat="44.31239" lon="0.97194">
        <ele>251</ele>
        <time>2022-02-22T15:22:44+01:00</time>
      </trkpt>
      <trkpt lat="44.31226" lon="0.97199">
        <ele>251.4</ele>
        <time>2022-02-22T15:23:11+01:00</time>
      </trkpt>
      <trkpt lat="44.31217" lon="0.97213">
        <ele>252.5</ele>
        <time>2022-02-22T15:23:34+01:00</time>
      </trkpt>
      <trkpt lat="44.31208" lon="0.97227">
        <ele>252.6</ele>
        <time>2022-02-22T15:23:45+01:00</time>
      </trkpt>
      <trkpt lat="44.31202" lon="0.97245">
        <ele>252.2</ele>
        <time>2022-02-22T15:23:55+01:00</time>
      </trkpt>
      <trkpt lat="44.31197" lon="0.97264">
        <ele>250.8</ele>
        <time>2022-02-22T15:24:05+01:00</time>
      </trkpt>
      <trkpt lat="44.31193" lon="0.97283">
        <ele>249.5</ele>
        <time>2022-02-22T15:24:15+01:00</time>
      </trkpt>
      <trkpt lat="44.31192" lon="0.97303">
        <ele>247.9</ele>
        <time>2022-02-22T15:24:31+01:00</time>
      </trkpt>
      <trkpt lat="44.31187" lon="0.97323">
        <ele>245.5</ele>
        <time>2022-02-22T15:24:44+01:00</time>
      </trkpt>
      <trkpt lat="44.31182" lon="0.97341">
        <ele>243.5</ele>
        <time>2022-02-22T15:24:54+01:00</time>
      </trkpt>
      <trkpt lat="44.31175" lon="0.97358">
        <ele>242.2</ele>
        <time>2022-02-22T15:25:13+01:00</time>
      </trkpt>
      <trkpt lat="44.31169" lon="0.97376">
        <ele>241.9</ele>
        <time>2022-02-22T15:25:24+01:00</time>
      </trkpt>
      <trkpt lat="44.31164" lon="0.97394">
        <ele>241.3</ele>
        <time>2022-02-22T15:25:34+01:00</time>
      </trkpt>
      <trkpt lat="44.3117" lon="0.97412">
        <ele>240.2</ele>
        <time>2022-02-22T15:27:31+01:00</time>
      </trkpt>
      <trkpt lat="44.31181" lon="0.97425">
        <ele>239.2</ele>
        <time>2022-02-22T15:27:42+01:00</time>
      </trkpt>
      <trkpt lat="44.31194" lon="0.97432">
        <ele>238.5</ele>
        <time>2022-02-22T15:27:51+01:00</time>
      </trkpt>
      <trkpt lat="44.31206" lon="0.97441">
        <ele>238.1</ele>
        <time>2022-02-22T15:28:01+01:00</time>
      </trkpt>
      <trkpt lat="44.3122" lon="0.97444">
        <ele>238</ele>
        <time>2022-02-22T15:28:10+01:00</time>
      </trkpt>
      <trkpt lat="44.31234" lon="0.97451">
        <ele>237.4</ele>
        <time>2022-02-22T15:28:22+01:00</time>
      </trkpt>
      <trkpt lat="44.31247" lon="0.97456">
        <ele>237.1</ele>
        <time>2022-02-22T15:28:31+01:00</time>
      </trkpt>
      <trkpt lat="44.31259" lon="0.97467">
        <ele>236.9</ele>
        <time>2022-02-22T15:28:42+01:00</time>
      </trkpt>
      <trkpt lat="44.31272" lon="0.97475">
        <ele>237</ele>
        <time>2022-02-22T15:28:56+01:00</time>
      </trkpt>
      <trkpt lat="44.31286" lon="0.97481">
        <ele>236.8</ele>
        <time>2022-02-22T15:29:08+01:00</time>
      </trkpt>
      <trkpt lat="44.31299" lon="0.97488">
        <ele>236.7</ele>
        <time>2022-02-22T15:29:19+01:00</time>
      </trkpt>
      <trkpt lat="44.31312" lon="0.97498">
        <ele>236.9</ele>
        <time>2022-02-22T15:29:30+01:00</time>
      </trkpt>
      <trkpt lat="44.31325" lon="0.97505">
        <ele>237.1</ele>
        <time>2022-02-22T15:29:41+01:00</time>
      </trkpt>
      <trkpt lat="44.31337" lon="0.97516">
        <ele>237.4</ele>
        <time>2022-02-22T15:29:53+01:00</time>
      </trkpt>
      <trkpt lat="44.31348" lon="0.97529">
        <ele>236.9</ele>
        <time>2022-02-22T15:30:03+01:00</time>
      </trkpt>
      <trkpt lat="44.3136" lon="0.9754">
        <ele>236.1</ele>
        <time>2022-02-22T15:30:13+01:00</time>
      </trkpt>
      <trkpt lat="44.31371" lon="0.97553">
        <ele>235</ele>
        <time>2022-02-22T15:30:25+01:00</time>
      </trkpt>
      <trkpt lat="44.31383" lon="0.97566">
        <ele>234</ele>
        <time>2022-02-22T15:30:35+01:00</time>
      </trkpt>
      <trkpt lat="44.31395" lon="0.97576">
        <ele>233.5</ele>
        <time>2022-02-22T15:30:45+01:00</time>
      </trkpt>
      <trkpt lat="44.31407" lon="0.97586">
        <ele>233.4</ele>
        <time>2022-02-22T15:30:54+01:00</time>
      </trkpt>
      <trkpt lat="44.31419" lon="0.97598">
        <ele>233.7</ele>
        <time>2022-02-22T15:31:04+01:00</time>
      </trkpt>
      <trkpt lat="44.31432" lon="0.97606">
        <ele>234.9</ele>
        <time>2022-02-22T15:31:15+01:00</time>
      </trkpt>
      <trkpt lat="44.31445" lon="0.97614">
        <ele>236.2</ele>
        <time>2022-02-22T15:31:27+01:00</time>
      </trkpt>
      <trkpt lat="44.31457" lon="0.97625">
        <ele>237.6</ele>
        <time>2022-02-22T15:31:37+01:00</time>
      </trkpt>
      <trkpt lat="44.31469" lon="0.97635">
        <ele>238.7</ele>
        <time>2022-02-22T15:31:48+01:00</time>
      </trkpt>
      <trkpt lat="44.31483" lon="0.97639">
        <ele>239</ele>
        <time>2022-02-22T15:31:58+01:00</time>
      </trkpt>
      <trkpt lat="44.31496" lon="0.97646">
        <ele>239.2</ele>
        <time>2022-02-22T15:32:08+01:00</time>
      </trkpt>
      <trkpt lat="44.3151" lon="0.9765">
        <ele>239.4</ele>
        <time>2022-02-22T15:32:18+01:00</time>
      </trkpt>
      <trkpt lat="44.31523" lon="0.97656">
        <ele>239.6</ele>
        <time>2022-02-22T15:32:30+01:00</time>
      </trkpt>
      <trkpt lat="44.31538" lon="0.97659">
        <ele>239.2</ele>
        <time>2022-02-22T15:32:48+01:00</time>
      </trkpt>
      <trkpt lat="44.31552" lon="0.97664">
        <ele>238.9</ele>
        <time>2022-02-22T15:33:26+01:00</time>
      </trkpt>
      <trkpt lat="44.31566" lon="0.97667">
        <ele>239</ele>
        <time>2022-02-22T15:33:41+01:00</time>
      </trkpt>
      <trkpt lat="44.31579" lon="0.97676">
        <ele>239.6</ele>
        <time>2022-02-22T15:33:56+01:00</time>
      </trkpt>
      <trkpt lat="44.31593" lon="0.97678">
        <ele>240</ele>
        <time>2022-02-22T15:34:07+01:00</time>
      </trkpt>
      <trkpt lat="44.31607" lon="0.9768">
        <ele>240.4</ele>
        <time>2022-02-22T15:34:18+01:00</time>
      </trkpt>
      <trkpt lat="44.3162" lon="0.97676">
        <ele>240.3</ele>
        <time>2022-02-22T15:34:29+01:00</time>
      </trkpt>
      <trkpt lat="44.31634" lon="0.9768">
        <ele>241.3</ele>
        <time>2022-02-22T15:34:40+01:00</time>
      </trkpt>
      <trkpt lat="44.31648" lon="0.97687">
        <ele>242.6</ele>
        <time>2022-02-22T15:34:51+01:00</time>
      </trkpt>
      <trkpt lat="44.31661" lon="0.97691">
        <ele>243.5</ele>
        <time>2022-02-22T15:35:01+01:00</time>
      </trkpt>
      <trkpt lat="44.31675" lon="0.97696">
        <ele>244.2</ele>
        <time>2022-02-22T15:35:11+01:00</time>
      </trkpt>
      <trkpt lat="44.31687" lon="0.97703">
        <ele>244.9</ele>
        <time>2022-02-22T15:35:21+01:00</time>
      </trkpt>
      <trkpt lat="44.31701" lon="0.97706">
        <ele>244.9</ele>
        <time>2022-02-22T15:35:32+01:00</time>
      </trkpt>
      <trkpt lat="44.31714" lon="0.97713">
        <ele>244.8</ele>
        <time>2022-02-22T15:35:49+01:00</time>
      </trkpt>
      <trkpt lat="44.31725" lon="0.97725">
        <ele>244.8</ele>
        <time>2022-02-22T15:36:04+01:00</time>
      </trkpt>
      <trkpt lat="44.31738" lon="0.97734">
        <ele>243.6</ele>
        <time>2022-02-22T15:36:21+01:00</time>
      </trkpt>
      <trkpt lat="44.3175" lon="0.97743">
        <ele>242.5</ele>
        <time>2022-02-22T15:36:44+01:00</time>
      </trkpt>
      <trkpt lat="44.31762" lon="0.97753">
        <ele>241.8</ele>
        <time>2022-02-22T15:36:55+01:00</time>
      </trkpt>
      <trkpt lat="44.31774" lon="0.97765">
        <ele>241.5</ele>
        <time>2022-02-22T15:37:07+01:00</time>
      </trkpt>
      <trkpt lat="44.31787" lon="0.97773">
        <ele>241.4</ele>
        <time>2022-02-22T15:37:53+01:00</time>
      </trkpt>
      <trkpt lat="44.31798" lon="0.97786">
        <ele>241.5</ele>
        <time>2022-02-22T15:38:07+01:00</time>
      </trkpt>
      <trkpt lat="44.31812" lon="0.97794">
        <ele>241.8</ele>
        <time>2022-02-22T15:38:18+01:00</time>
      </trkpt>
      <trkpt lat="44.31824" lon="0.97805">
        <ele>242.6</ele>
        <time>2022-02-22T15:38:28+01:00</time>
      </trkpt>
      <trkpt lat="44.31835" lon="0.97816">
        <ele>243.3</ele>
        <time>2022-02-22T15:38:40+01:00</time>
      </trkpt>
      <trkpt lat="44.31848" lon="0.97805">
        <ele>243</ele>
        <time>2022-02-22T15:38:49+01:00</time>
      </trkpt>
      <trkpt lat="44.31859" lon="0.97793">
        <ele>243</ele>
        <time>2022-02-22T15:38:58+01:00</time>
      </trkpt>
      <trkpt lat="44.31868" lon="0.97777">
        <ele>242.7</ele>
        <time>2022-02-22T15:39:08+01:00</time>
      </trkpt>
      <trkpt lat="44.31877" lon="0.97762">
        <ele>242.2</ele>
        <time>2022-02-22T15:39:18+01:00</time>
      </trkpt>
      <trkpt lat="44.31888" lon="0.97751">
        <ele>242</ele>
        <time>2022-02-22T15:39:28+01:00</time>
      </trkpt>
      <trkpt lat="44.31898" lon="0.97736">
        <ele>242</ele>
        <time>2022-02-22T15:39:39+01:00</time>
      </trkpt>
      <trkpt lat="44.31908" lon="0.9772">
        <ele>242</ele>
        <time>2022-02-22T15:39:49+01:00</time>
      </trkpt>
      <trkpt lat="44.31918" lon="0.97704">
        <ele>242</ele>
        <time>2022-02-22T15:40:01+01:00</time>
      </trkpt>
      <trkpt lat="44.31928" lon="0.97691">
        <ele>241.9</ele>
        <time>2022-02-22T15:40:11+01:00</time>
      </trkpt>
      <trkpt lat="44.31937" lon="0.97675">
        <ele>241.3</ele>
        <time>2022-02-22T15:40:21+01:00</time>
      </trkpt>
      <trkpt lat="44.31947" lon="0.9766">
        <ele>240.8</ele>
        <time>2022-02-22T15:40:30+01:00</time>
      </trkpt>
      <trkpt lat="44.31956" lon="0.97646">
        <ele>240.2</ele>
        <time>2022-02-22T15:40:40+01:00</time>
      </trkpt>
      <trkpt lat="44.31966" lon="0.97632">
        <ele>239.7</ele>
        <time>2022-02-22T15:41:08+01:00</time>
      </trkpt>
      <trkpt lat="44.31975" lon="0.97618">
        <ele>239.3</ele>
        <time>2022-02-22T15:41:18+01:00</time>
      </trkpt>
      <trkpt lat="44.31984" lon="0.97604">
        <ele>238.9</ele>
        <time>2022-02-22T15:41:28+01:00</time>
      </trkpt>
      <trkpt lat="44.31994" lon="0.97588">
        <ele>238.1</ele>
        <time>2022-02-22T15:41:38+01:00</time>
      </trkpt>
      <trkpt lat="44.32004" lon="0.97574">
        <ele>238</ele>
        <time>2022-02-22T15:41:48+01:00</time>
      </trkpt>
      <trkpt lat="44.32012" lon="0.97558">
        <ele>238</ele>
        <time>2022-02-22T15:41:57+01:00</time>
      </trkpt>
      <trkpt lat="44.32021" lon="0.97543">
        <ele>237.9</ele>
        <time>2022-02-22T15:42:07+01:00</time>
      </trkpt>
      <trkpt lat="44.3203" lon="0.97528">
        <ele>238.1</ele>
        <time>2022-02-22T15:42:16+01:00</time>
      </trkpt>
      <trkpt lat="44.32037" lon="0.9751">
        <ele>237.2</ele>
        <time>2022-02-22T15:42:26+01:00</time>
      </trkpt>
      <trkpt lat="44.32045" lon="0.97494">
        <ele>236.9</ele>
        <time>2022-02-22T15:42:38+01:00</time>
      </trkpt>
      <trkpt lat="44.32053" lon="0.97478">
        <ele>236.3</ele>
        <time>2022-02-22T15:42:47+01:00</time>
      </trkpt>
      <trkpt lat="44.3206" lon="0.97462">
        <ele>236</ele>
        <time>2022-02-22T15:42:56+01:00</time>
      </trkpt>
      <trkpt lat="44.32068" lon="0.97446">
        <ele>236</ele>
        <time>2022-02-22T15:43:06+01:00</time>
      </trkpt>
      <trkpt lat="44.32075" lon="0.9743">
        <ele>235.9</ele>
        <time>2022-02-22T15:43:15+01:00</time>
      </trkpt>
      <trkpt lat="44.32083" lon="0.97412">
        <ele>235.8</ele>
        <time>2022-02-22T15:43:25+01:00</time>
      </trkpt>
      <trkpt lat="44.32092" lon="0.97395">
        <ele>235.2</ele>
        <time>2022-02-22T15:43:36+01:00</time>
      </trkpt>
      <trkpt lat="44.32098" lon="0.97378">
        <ele>234.6</ele>
        <time>2022-02-22T15:43:45+01:00</time>
      </trkpt>
      <trkpt lat="44.32104" lon="0.9736">
        <ele>234</ele>
        <time>2022-02-22T15:43:54+01:00</time>
      </trkpt>
      <trkpt lat="44.32111" lon="0.97344">
        <ele>234</ele>
        <time>2022-02-22T15:44:04+01:00</time>
      </trkpt>
      <trkpt lat="44.32118" lon="0.97326">
        <ele>233.6</ele>
        <time>2022-02-22T15:44:13+01:00</time>
      </trkpt>
      <trkpt lat="44.32124" lon="0.9731">
        <ele>233.5</ele>
        <time>2022-02-22T15:44:23+01:00</time>
      </trkpt>
      <trkpt lat="44.32131" lon="0.97292">
        <ele>233</ele>
        <time>2022-02-22T15:44:32+01:00</time>
      </trkpt>
      <trkpt lat="44.32137" lon="0.97275">
        <ele>232.9</ele>
        <time>2022-02-22T15:44:41+01:00</time>
      </trkpt>
      <trkpt lat="44.32142" lon="0.97255">
        <ele>232.9</ele>
        <time>2022-02-22T15:44:50+01:00</time>
      </trkpt>
      <trkpt lat="44.32147" lon="0.97237">
        <ele>232.4</ele>
        <time>2022-02-22T15:45:00+01:00</time>
      </trkpt>
      <trkpt lat="44.32154" lon="0.97219">
        <ele>231.9</ele>
        <time>2022-02-22T15:45:10+01:00</time>
      </trkpt>
      <trkpt lat="44.3216" lon="0.97201">
        <ele>231.8</ele>
        <time>2022-02-22T15:45:19+01:00</time>
      </trkpt>
      <trkpt lat="44.32164" lon="0.97183">
        <ele>231.9</ele>
        <time>2022-02-22T15:45:29+01:00</time>
      </trkpt>
      <trkpt lat="44.3217" lon="0.97164">
        <ele>231.8</ele>
        <time>2022-02-22T15:45:40+01:00</time>
      </trkpt>
      <trkpt lat="44.32173" lon="0.97144">
        <ele>231.7</ele>
        <time>2022-02-22T15:45:49+01:00</time>
      </trkpt>
      <trkpt lat="44.32177" lon="0.97126">
        <ele>231.1</ele>
        <time>2022-02-22T15:46:00+01:00</time>
      </trkpt>
      <trkpt lat="44.32184" lon="0.97109">
        <ele>230.5</ele>
        <time>2022-02-22T15:46:35+01:00</time>
      </trkpt>
      <trkpt lat="44.32195" lon="0.97098">
        <ele>230</ele>
        <time>2022-02-22T15:46:48+01:00</time>
      </trkpt>
      <trkpt lat="44.32206" lon="0.97085">
        <ele>228.7</ele>
        <time>2022-02-22T15:46:58+01:00</time>
      </trkpt>
      <trkpt lat="44.32217" lon="0.97073">
        <ele>227.5</ele>
        <time>2022-02-22T15:47:08+01:00</time>
      </trkpt>
      <trkpt lat="44.32229" lon="0.97063">
        <ele>225.8</ele>
        <time>2022-02-22T15:47:19+01:00</time>
      </trkpt>
      <trkpt lat="44.32241" lon="0.97051">
        <ele>223.8</ele>
        <time>2022-02-22T15:47:29+01:00</time>
      </trkpt>
      <trkpt lat="44.32253" lon="0.9704">
        <ele>222.3</ele>
        <time>2022-02-22T15:47:38+01:00</time>
      </trkpt>
      <trkpt lat="44.32264" lon="0.97028">
        <ele>221.5</ele>
        <time>2022-02-22T15:47:47+01:00</time>
      </trkpt>
      <trkpt lat="44.32276" lon="0.97018">
        <ele>221</ele>
        <time>2022-02-22T15:47:57+01:00</time>
      </trkpt>
      <trkpt lat="44.32286" lon="0.97004">
        <ele>220.4</ele>
        <time>2022-02-22T15:48:07+01:00</time>
      </trkpt>
      <trkpt lat="44.32296" lon="0.96989">
        <ele>219.5</ele>
        <time>2022-02-22T15:48:17+01:00</time>
      </trkpt>
      <trkpt lat="44.32305" lon="0.96973">
        <ele>219</ele>
        <time>2022-02-22T15:48:27+01:00</time>
      </trkpt>
      <trkpt lat="44.32314" lon="0.96958">
        <ele>218.5</ele>
        <time>2022-02-22T15:48:36+01:00</time>
      </trkpt>
      <trkpt lat="44.32323" lon="0.96944">
        <ele>217.7</ele>
        <time>2022-02-22T15:48:47+01:00</time>
      </trkpt>
      <trkpt lat="44.32331" lon="0.96927">
        <ele>217.1</ele>
        <time>2022-02-22T15:49:06+01:00</time>
      </trkpt>
      <trkpt lat="44.32339" lon="0.96911">
        <ele>216.6</ele>
        <time>2022-02-22T15:49:22+01:00</time>
      </trkpt>
      <trkpt lat="44.32344" lon="0.96893">
        <ele>215.5</ele>
        <time>2022-02-22T15:49:33+01:00</time>
      </trkpt>
      <trkpt lat="44.32341" lon="0.96872">
        <ele>215.3</ele>
        <time>2022-02-22T15:49:46+01:00</time>
      </trkpt>
      <trkpt lat="44.32339" lon="0.96853">
        <ele>215.4</ele>
        <time>2022-02-22T15:49:57+01:00</time>
      </trkpt>
      <trkpt lat="44.32342" lon="0.96833">
        <ele>215.4</ele>
        <time>2022-02-22T15:50:09+01:00</time>
      </trkpt>
      <trkpt lat="44.32345" lon="0.96814">
        <ele>215.9</ele>
        <time>2022-02-22T15:50:20+01:00</time>
      </trkpt>
      <trkpt lat="44.32346" lon="0.96794">
        <ele>216.1</ele>
        <time>2022-02-22T15:50:30+01:00</time>
      </trkpt>
      <trkpt lat="44.32345" lon="0.96775">
        <ele>216.2</ele>
        <time>2022-02-22T15:50:39+01:00</time>
      </trkpt>
      <trkpt lat="44.32345" lon="0.96757">
        <ele>216.9</ele>
        <time>2022-02-22T15:50:49+01:00</time>
      </trkpt>
      <trkpt lat="44.32344" lon="0.96737">
        <ele>216.9</ele>
        <time>2022-02-22T15:51:01+01:00</time>
      </trkpt>
      <trkpt lat="44.32342" lon="0.96718">
        <ele>216.7</ele>
        <time>2022-02-22T15:51:12+01:00</time>
      </trkpt>
      <trkpt lat="44.32341" lon="0.96698">
        <ele>216.7</ele>
        <time>2022-02-22T15:51:22+01:00</time>
      </trkpt>
      <trkpt lat="44.32338" lon="0.96678">
        <ele>216.3</ele>
        <time>2022-02-22T15:51:31+01:00</time>
      </trkpt>
      <trkpt lat="44.32338" lon="0.96659">
        <ele>215.9</ele>
        <time>2022-02-22T15:51:41+01:00</time>
      </trkpt>
      <trkpt lat="44.32339" lon="0.96637">
        <ele>215.7</ele>
        <time>2022-02-22T15:51:50+01:00</time>
      </trkpt>
      <trkpt lat="44.32334" lon="0.9662">
        <ele>214.6</ele>
        <time>2022-02-22T15:52:03+01:00</time>
      </trkpt>
      <trkpt lat="44.3233" lon="0.96602">
        <ele>213.7</ele>
        <time>2022-02-22T15:52:23+01:00</time>
      </trkpt>
      <trkpt lat="44.32329" lon="0.96582">
        <ele>212.9</ele>
        <time>2022-02-22T15:52:38+01:00</time>
      </trkpt>
      <trkpt lat="44.32334" lon="0.96563">
        <ele>211.5</ele>
        <time>2022-02-22T15:52:50+01:00</time>
      </trkpt>
      <trkpt lat="44.32331" lon="0.96544">
        <ele>210.7</ele>
        <time>2022-02-22T15:53:05+01:00</time>
      </trkpt>
      <trkpt lat="44.3233" lon="0.96524">
        <ele>210.1</ele>
        <time>2022-02-22T15:53:20+01:00</time>
      </trkpt>
      <trkpt lat="44.32336" lon="0.96507">
        <ele>208.5</ele>
        <time>2022-02-22T15:53:54+01:00</time>
      </trkpt>
      <trkpt lat="44.32345" lon="0.96491">
        <ele>204.4</ele>
        <time>2022-02-22T15:55:18+01:00</time>
      </trkpt>
      <trkpt lat="44.32349" lon="0.96473">
        <ele>201</ele>
        <time>2022-02-22T15:55:40+01:00</time>
      </trkpt>
      <trkpt lat="44.32355" lon="0.96455">
        <ele>199.1</ele>
        <time>2022-02-22T15:56:02+01:00</time>
      </trkpt>
      <trkpt lat="44.32359" lon="0.96436">
        <ele>200.4</ele>
        <time>2022-02-22T15:56:16+01:00</time>
      </trkpt>
      <trkpt lat="44.32367" lon="0.9642">
        <ele>200.2</ele>
        <time>2022-02-22T15:56:30+01:00</time>
      </trkpt>
      <trkpt lat="44.32377" lon="0.96406">
        <ele>196.8</ele>
        <time>2022-02-22T15:56:39+01:00</time>
      </trkpt>
      <trkpt lat="44.32377" lon="0.96387">
        <ele>200.7</ele>
        <time>2022-02-22T15:56:52+01:00</time>
      </trkpt>
      <trkpt lat="44.32382" lon="0.96368">
        <ele>200.7</ele>
        <time>2022-02-22T15:57:01+01:00</time>
      </trkpt>
      <trkpt lat="44.32392" lon="0.96353">
        <ele>199.4</ele>
        <time>2022-02-22T15:57:13+01:00</time>
      </trkpt>
      <trkpt lat="44.32401" lon="0.96337">
        <ele>197.2</ele>
        <time>2022-02-22T15:57:25+01:00</time>
      </trkpt>
      <trkpt lat="44.32409" lon="0.96322">
        <ele>193.7</ele>
        <time>2022-02-22T15:57:36+01:00</time>
      </trkpt>
      <trkpt lat="44.32413" lon="0.963">
        <ele>192.5</ele>
        <time>2022-02-22T15:57:50+01:00</time>
      </trkpt>
      <trkpt lat="44.32418" lon="0.96282">
        <ele>189.4</ele>
        <time>2022-02-22T15:58:01+01:00</time>
      </trkpt>
      <trkpt lat="44.32421" lon="0.96262">
        <ele>186.4</ele>
        <time>2022-02-22T15:58:12+01:00</time>
      </trkpt>
      <trkpt lat="44.32426" lon="0.96242">
        <ele>181.8</ele>
        <time>2022-02-22T15:58:23+01:00</time>
      </trkpt>
      <trkpt lat="44.32432" lon="0.96224">
        <ele>176.5</ele>
        <time>2022-02-22T15:58:34+01:00</time>
      </trkpt>
      <trkpt lat="44.3244" lon="0.96206">
        <ele>171.7</ele>
        <time>2022-02-22T15:58:44+01:00</time>
      </trkpt>
      <trkpt lat="44.32444" lon="0.96188">
        <ele>169</ele>
        <time>2022-02-22T15:58:54+01:00</time>
      </trkpt>
      <trkpt lat="44.32453" lon="0.96172">
        <ele>165.3</ele>
        <time>2022-02-22T15:59:04+01:00</time>
      </trkpt>
      <trkpt lat="44.32457" lon="0.96154">
        <ele>162.9</ele>
        <time>2022-02-22T15:59:15+01:00</time>
      </trkpt>
      <trkpt lat="44.32461" lon="0.96134">
        <ele>161.2</ele>
        <time>2022-02-22T15:59:27+01:00</time>
      </trkpt>
      <trkpt lat="44.3247" lon="0.96119">
        <ele>159.2</ele>
        <time>2022-02-22T15:59:37+01:00</time>
      </trkpt>
      <trkpt lat="44.32478" lon="0.96101">
        <ele>158.6</ele>
        <time>2022-02-22T15:59:48+01:00</time>
      </trkpt>
      <trkpt lat="44.32482" lon="0.96083">
        <ele>158.4</ele>
        <time>2022-02-22T15:59:59+01:00</time>
      </trkpt>
      <trkpt lat="44.32491" lon="0.96067">
        <ele>154.5</ele>
        <time>2022-02-22T16:00:12+01:00</time>
      </trkpt>
      <trkpt lat="44.32493" lon="0.96048">
        <ele>152.8</ele>
        <time>2022-02-22T16:00:52+01:00</time>
      </trkpt>
      <trkpt lat="44.32486" lon="0.96031">
        <ele>154.6</ele>
        <time>2022-02-22T16:07:24+01:00</time>
      </trkpt>
      <trkpt lat="44.32476" lon="0.96019">
        <ele>155.7</ele>
        <time>2022-02-22T16:07:34+01:00</time>
      </trkpt>
      <trkpt lat="44.32465" lon="0.96006">
        <ele>156.5</ele>
        <time>2022-02-22T16:07:48+01:00</time>
      </trkpt>
      <trkpt lat="44.32455" lon="0.95993">
        <ele>158.6</ele>
        <time>2022-02-22T16:08:00+01:00</time>
      </trkpt>
      <trkpt lat="44.32448" lon="0.95976">
        <ele>157.4</ele>
        <time>2022-02-22T16:08:10+01:00</time>
      </trkpt>
      <trkpt lat="44.32437" lon="0.95963">
        <ele>158</ele>
        <time>2022-02-22T16:08:22+01:00</time>
      </trkpt>
      <trkpt lat="44.32428" lon="0.95948">
        <ele>158</ele>
        <time>2022-02-22T16:08:37+01:00</time>
      </trkpt>
      <trkpt lat="44.32418" lon="0.95934">
        <ele>157.9</ele>
        <time>2022-02-22T16:08:47+01:00</time>
      </trkpt>
      <trkpt lat="44.32407" lon="0.95922">
        <ele>158.1</ele>
        <time>2022-02-22T16:08:57+01:00</time>
      </trkpt>
      <trkpt lat="44.32395" lon="0.95911">
        <ele>158.9</ele>
        <time>2022-02-22T16:09:08+01:00</time>
      </trkpt>
      <trkpt lat="44.32383" lon="0.95903">
        <ele>159.4</ele>
        <time>2022-02-22T16:09:19+01:00</time>
      </trkpt>
      <trkpt lat="44.32368" lon="0.95901">
        <ele>161</ele>
        <time>2022-02-22T16:09:29+01:00</time>
      </trkpt>
      <trkpt lat="44.32354" lon="0.95895">
        <ele>160.5</ele>
        <time>2022-02-22T16:09:41+01:00</time>
      </trkpt>
      <trkpt lat="44.32341" lon="0.95896">
        <ele>161.6</ele>
        <time>2022-02-22T16:09:53+01:00</time>
      </trkpt>
      <trkpt lat="44.32327" lon="0.95896">
        <ele>162.6</ele>
        <time>2022-02-22T16:10:29+01:00</time>
      </trkpt>
      <trkpt lat="44.32314" lon="0.95893">
        <ele>162.7</ele>
        <time>2022-02-22T16:10:41+01:00</time>
      </trkpt>
      <trkpt lat="44.323" lon="0.95894">
        <ele>164.3</ele>
        <time>2022-02-22T16:10:50+01:00</time>
      </trkpt>
      <trkpt lat="44.32286" lon="0.95887">
        <ele>164.3</ele>
        <time>2022-02-22T16:11:01+01:00</time>
      </trkpt>
      <trkpt lat="44.32272" lon="0.95881">
        <ele>164.8</ele>
        <time>2022-02-22T16:11:14+01:00</time>
      </trkpt>
      <trkpt lat="44.32259" lon="0.95872">
        <ele>164.5</ele>
        <time>2022-02-22T16:11:25+01:00</time>
      </trkpt>
      <trkpt lat="44.32248" lon="0.95861">
        <ele>163.4</ele>
        <time>2022-02-22T16:11:35+01:00</time>
      </trkpt>
      <trkpt lat="44.32238" lon="0.95845">
        <ele>163.6</ele>
        <time>2022-02-22T16:11:44+01:00</time>
      </trkpt>
      <trkpt lat="44.32225" lon="0.95838">
        <ele>165.9</ele>
        <time>2022-02-22T16:11:54+01:00</time>
      </trkpt>
      <trkpt lat="44.32213" lon="0.95825">
        <ele>166.7</ele>
        <time>2022-02-22T16:12:04+01:00</time>
      </trkpt>
      <trkpt lat="44.322" lon="0.95821">
        <ele>169</ele>
        <time>2022-02-22T16:13:12+01:00</time>
      </trkpt>
      <trkpt lat="44.32186" lon="0.95826">
        <ele>172</ele>
        <time>2022-02-22T16:13:26+01:00</time>
      </trkpt>
      <trkpt lat="44.32174" lon="0.95816">
        <ele>172.8</ele>
        <time>2022-02-22T16:13:40+01:00</time>
      </trkpt>
      <trkpt lat="44.32165" lon="0.95802">
        <ele>172.4</ele>
        <time>2022-02-22T16:13:53+01:00</time>
      </trkpt>
      <trkpt lat="44.32154" lon="0.95789">
        <ele>174.1</ele>
        <time>2022-02-22T16:14:05+01:00</time>
      </trkpt>
      <trkpt lat="44.32146" lon="0.95773">
        <ele>173.2</ele>
        <time>2022-02-22T16:14:15+01:00</time>
      </trkpt>
      <trkpt lat="44.32137" lon="0.95758">
        <ele>173</ele>
        <time>2022-02-22T16:14:25+01:00</time>
      </trkpt>
      <trkpt lat="44.32128" lon="0.95741">
        <ele>174.2</ele>
        <time>2022-02-22T16:14:34+01:00</time>
      </trkpt>
      <trkpt lat="44.3212" lon="0.95726">
        <ele>175</ele>
        <time>2022-02-22T16:14:43+01:00</time>
      </trkpt>
      <trkpt lat="44.32111" lon="0.95711">
        <ele>175.3</ele>
        <time>2022-02-22T16:14:52+01:00</time>
      </trkpt>
      <trkpt lat="44.321" lon="0.95698">
        <ele>176.4</ele>
        <time>2022-02-22T16:15:02+01:00</time>
      </trkpt>
      <trkpt lat="44.32103" lon="0.95692">
        <ele>174.6</ele>
        <time>2022-02-22T16:20:55+01:00</time>
      </trkpt>
      <trkpt lat="44.32104" lon="0.95673">
        <ele>171</ele>
        <time>2022-02-22T16:21:12+01:00</time>
      </trkpt>
      <trkpt lat="44.32098" lon="0.95654">
        <ele>168.2</ele>
        <time>2022-02-22T16:21:26+01:00</time>
      </trkpt>
      <trkpt lat="44.32094" lon="0.95636">
        <ele>165.2</ele>
        <time>2022-02-22T16:21:37+01:00</time>
      </trkpt>
      <trkpt lat="44.32086" lon="0.95621">
        <ele>163.4</ele>
        <time>2022-02-22T16:21:48+01:00</time>
      </trkpt>
      <trkpt lat="44.32077" lon="0.95604">
        <ele>160.4</ele>
        <time>2022-02-22T16:21:58+01:00</time>
      </trkpt>
      <trkpt lat="44.3207" lon="0.95588">
        <ele>156.9</ele>
        <time>2022-02-22T16:22:12+01:00</time>
      </trkpt>
      <trkpt lat="44.32066" lon="0.95569">
        <ele>153.2</ele>
        <time>2022-02-22T16:22:24+01:00</time>
      </trkpt>
      <trkpt lat="44.32061" lon="0.95551">
        <ele>149.9</ele>
        <time>2022-02-22T16:22:37+01:00</time>
      </trkpt>
      <trkpt lat="44.32054" lon="0.95534">
        <ele>146.2</ele>
        <time>2022-02-22T16:22:51+01:00</time>
      </trkpt>
      <trkpt lat="44.32048" lon="0.95517">
        <ele>141.8</ele>
        <time>2022-02-22T16:23:06+01:00</time>
      </trkpt>
      <trkpt lat="44.32042" lon="0.95499">
        <ele>137.9</ele>
        <time>2022-02-22T16:23:22+01:00</time>
      </trkpt>
      <trkpt lat="44.32036" lon="0.95482">
        <ele>134.8</ele>
        <time>2022-02-22T16:23:34+01:00</time>
      </trkpt>
      <trkpt lat="44.3203" lon="0.95464">
        <ele>132.5</ele>
        <time>2022-02-22T16:23:44+01:00</time>
      </trkpt>
      <trkpt lat="44.32023" lon="0.95447">
        <ele>131</ele>
        <time>2022-02-22T16:24:06+01:00</time>
      </trkpt>
      <trkpt lat="44.32026" lon="0.95427">
        <ele>129.8</ele>
        <time>2022-02-22T16:24:30+01:00</time>
      </trkpt>
      <trkpt lat="44.32029" lon="0.95408">
        <ele>128.7</ele>
        <time>2022-02-22T16:24:41+01:00</time>
      </trkpt>
      <trkpt lat="44.32033" lon="0.95389">
        <ele>128</ele>
        <time>2022-02-22T16:24:51+01:00</time>
      </trkpt>
      <trkpt lat="44.32034" lon="0.95368">
        <ele>127.3</ele>
        <time>2022-02-22T16:25:01+01:00</time>
      </trkpt>
      <trkpt lat="44.32033" lon="0.95348">
        <ele>127</ele>
        <time>2022-02-22T16:25:11+01:00</time>
      </trkpt>
      <trkpt lat="44.32034" lon="0.95329">
        <ele>126.9</ele>
        <time>2022-02-22T16:25:20+01:00</time>
      </trkpt>
      <trkpt lat="44.32033" lon="0.9531">
        <ele>126.2</ele>
        <time>2022-02-22T16:25:30+01:00</time>
      </trkpt>
      <trkpt lat="44.32031" lon="0.95289">
        <ele>126</ele>
        <time>2022-02-22T16:25:41+01:00</time>
      </trkpt>
      <trkpt lat="44.32029" lon="0.95269">
        <ele>125.7</ele>
        <time>2022-02-22T16:25:51+01:00</time>
      </trkpt>
      <trkpt lat="44.32027" lon="0.95249">
        <ele>125</ele>
        <time>2022-02-22T16:26:00+01:00</time>
      </trkpt>
      <trkpt lat="44.32028" lon="0.9523">
        <ele>125</ele>
        <time>2022-02-22T16:26:09+01:00</time>
      </trkpt>
      <trkpt lat="44.32028" lon="0.9521">
        <ele>125</ele>
        <time>2022-02-22T16:26:18+01:00</time>
      </trkpt>
      <trkpt lat="44.32029" lon="0.95191">
        <ele>124.9</ele>
        <time>2022-02-22T16:26:28+01:00</time>
      </trkpt>
      <trkpt lat="44.32032" lon="0.95171">
        <ele>124.9</ele>
        <time>2022-02-22T16:27:09+01:00</time>
      </trkpt>
      <trkpt lat="44.32037" lon="0.95153">
        <ele>124.5</ele>
        <time>2022-02-22T16:27:20+01:00</time>
      </trkpt>
      <trkpt lat="44.32043" lon="0.95135">
        <ele>123.8</ele>
        <time>2022-02-22T16:27:40+01:00</time>
      </trkpt>
      <trkpt lat="44.32048" lon="0.95117">
        <ele>123.1</ele>
        <time>2022-02-22T16:27:50+01:00</time>
      </trkpt>
      <trkpt lat="44.32051" lon="0.95099">
        <ele>123.4</ele>
        <time>2022-02-22T16:28:09+01:00</time>
      </trkpt>
      <trkpt lat="44.32053" lon="0.9508">
        <ele>124</ele>
        <time>2022-02-22T16:28:23+01:00</time>
      </trkpt>
      <trkpt lat="44.32059" lon="0.95062">
        <ele>124.6</ele>
        <time>2022-02-22T16:28:38+01:00</time>
      </trkpt>
      <trkpt lat="44.32065" lon="0.95045">
        <ele>123.8</ele>
        <time>2022-02-22T16:28:58+01:00</time>
      </trkpt>
      <trkpt lat="44.3207" lon="0.95026">
        <ele>123</ele>
        <time>2022-02-22T16:29:09+01:00</time>
      </trkpt>
      <trkpt lat="44.32078" lon="0.95008">
        <ele>123</ele>
        <time>2022-02-22T16:29:18+01:00</time>
      </trkpt>
      <trkpt lat="44.32083" lon="0.9499">
        <ele>123.4</ele>
        <time>2022-02-22T16:29:28+01:00</time>
      </trkpt>
      <trkpt lat="44.32087" lon="0.94971">
        <ele>123.8</ele>
        <time>2022-02-22T16:29:37+01:00</time>
      </trkpt>
      <trkpt lat="44.32093" lon="0.94953">
        <ele>123.2</ele>
        <time>2022-02-22T16:29:48+01:00</time>
      </trkpt>
      <trkpt lat="44.32095" lon="0.94932">
        <ele>123</ele>
        <time>2022-02-22T16:29:57+01:00</time>
      </trkpt>
      <trkpt lat="44.32098" lon="0.94913">
        <ele>123.1</ele>
        <time>2022-02-22T16:30:07+01:00</time>
      </trkpt>
      <trkpt lat="44.32102" lon="0.94895">
        <ele>123.8</ele>
        <time>2022-02-22T16:30:20+01:00</time>
      </trkpt>
      <trkpt lat="44.32105" lon="0.94876">
        <ele>125.2</ele>
        <time>2022-02-22T16:30:48+01:00</time>
      </trkpt>
      <trkpt lat="44.32106" lon="0.94857">
        <ele>127.1</ele>
        <time>2022-02-22T16:32:15+01:00</time>
      </trkpt>
      <trkpt lat="44.32107" lon="0.94837">
        <ele>129.6</ele>
        <time>2022-02-22T16:32:29+01:00</time>
      </trkpt>
      <trkpt lat="44.32109" lon="0.94818">
        <ele>132.2</ele>
        <time>2022-02-22T16:32:42+01:00</time>
      </trkpt>
      <trkpt lat="44.3211" lon="0.94798">
        <ele>135.4</ele>
        <time>2022-02-22T16:32:56+01:00</time>
      </trkpt>
      <trkpt lat="44.32112" lon="0.94778">
        <ele>139</ele>
        <time>2022-02-22T16:33:13+01:00</time>
      </trkpt>
      <trkpt lat="44.32114" lon="0.94757">
        <ele>143.3</ele>
        <time>2022-02-22T16:34:24+01:00</time>
      </trkpt>
      <trkpt lat="44.32114" lon="0.94738">
        <ele>147.3</ele>
        <time>2022-02-22T16:34:41+01:00</time>
      </trkpt>
      <trkpt lat="44.3211" lon="0.94718">
        <ele>150.9</ele>
        <time>2022-02-22T16:35:35+01:00</time>
      </trkpt>
      <trkpt lat="44.32106" lon="0.94699">
        <ele>155</ele>
        <time>2022-02-22T16:35:49+01:00</time>
      </trkpt>
      <trkpt lat="44.32101" lon="0.94682">
        <ele>157.5</ele>
        <time>2022-02-22T16:36:04+01:00</time>
      </trkpt>
      <trkpt lat="44.32093" lon="0.94667">
        <ele>159.1</ele>
        <time>2022-02-22T16:36:17+01:00</time>
      </trkpt>
      <trkpt lat="44.32084" lon="0.94649">
        <ele>160.7</ele>
        <time>2022-02-22T16:36:46+01:00</time>
      </trkpt>
      <trkpt lat="44.32075" lon="0.94635">
        <ele>160.6</ele>
        <time>2022-02-22T16:37:30+01:00</time>
      </trkpt>
      <trkpt lat="44.32068" lon="0.94618">
        <ele>161.2</ele>
        <time>2022-02-22T16:37:47+01:00</time>
      </trkpt>
      <trkpt lat="44.32067" lon="0.94598">
        <ele>162.2</ele>
        <time>2022-02-22T16:37:59+01:00</time>
      </trkpt>
      <trkpt lat="44.32076" lon="0.94582">
        <ele>165.5</ele>
        <time>2022-02-22T16:38:12+01:00</time>
      </trkpt>
      <trkpt lat="44.32083" lon="0.94565">
        <ele>167.9</ele>
        <time>2022-02-22T16:38:28+01:00</time>
      </trkpt>
      <trkpt lat="44.3209" lon="0.94549">
        <ele>170.2</ele>
        <time>2022-02-22T16:39:46+01:00</time>
      </trkpt>
      <trkpt lat="44.32092" lon="0.94529">
        <ele>171.5</ele>
        <time>2022-02-22T16:39:58+01:00</time>
      </trkpt>
      <trkpt lat="44.32089" lon="0.94511">
        <ele>171.3</ele>
        <time>2022-02-22T16:40:33+01:00</time>
      </trkpt>
      <trkpt lat="44.32095" lon="0.94493">
        <ele>176.3</ele>
        <time>2022-02-22T16:41:15+01:00</time>
      </trkpt>
      <trkpt lat="44.32103" lon="0.94477">
        <ele>180.3</ele>
        <time>2022-02-22T16:42:32+01:00</time>
      </trkpt>
      <trkpt lat="44.32108" lon="0.94459">
        <ele>182.2</ele>
        <time>2022-02-22T16:42:43+01:00</time>
      </trkpt>
      <trkpt lat="44.3211" lon="0.9444">
        <ele>182.7</ele>
        <time>2022-02-22T16:42:56+01:00</time>
      </trkpt>
      <trkpt lat="44.3212" lon="0.94425">
        <ele>188.3</ele>
        <time>2022-02-22T16:43:55+01:00</time>
      </trkpt>
      <trkpt lat="44.32122" lon="0.94405">
        <ele>190.9</ele>
        <time>2022-02-22T16:44:07+01:00</time>
      </trkpt>
      <trkpt lat="44.32125" lon="0.94386">
        <ele>194.8</ele>
        <time>2022-02-22T16:44:22+01:00</time>
      </trkpt>
      <trkpt lat="44.32126" lon="0.94367">
        <ele>198</ele>
        <time>2022-02-22T16:45:44+01:00</time>
      </trkpt>
      <trkpt lat="44.3213" lon="0.94348">
        <ele>202.7</ele>
        <time>2022-02-22T16:46:19+01:00</time>
      </trkpt>
      <trkpt lat="44.32121" lon="0.94333">
        <ele>203.3</ele>
        <time>2022-02-22T16:46:57+01:00</time>
      </trkpt>
      <trkpt lat="44.32136" lon="0.94336">
        <ele>205.9</ele>
        <time>2022-02-22T16:47:57+01:00</time>
      </trkpt>
      <trkpt lat="44.32145" lon="0.94349">
        <ele>207</ele>
        <time>2022-02-22T16:48:07+01:00</time>
      </trkpt>
      <trkpt lat="44.32148" lon="0.94368">
        <ele>206.7</ele>
        <time>2022-02-22T16:48:35+01:00</time>
      </trkpt>
      <trkpt lat="44.32156" lon="0.94384">
        <ele>208.7</ele>
        <time>2022-02-22T16:48:47+01:00</time>
      </trkpt>
      <trkpt lat="44.32161" lon="0.94402">
        <ele>210.4</ele>
        <time>2022-02-22T16:48:59+01:00</time>
      </trkpt>
      <trkpt lat="44.32166" lon="0.9442">
        <ele>212.7</ele>
        <time>2022-02-22T16:49:35+01:00</time>
      </trkpt>
      <trkpt lat="44.3217" lon="0.94439">
        <ele>214.4</ele>
        <time>2022-02-22T16:49:47+01:00</time>
      </trkpt>
      <trkpt lat="44.32177" lon="0.94456">
        <ele>215.7</ele>
        <time>2022-02-22T16:50:02+01:00</time>
      </trkpt>
      <trkpt lat="44.32188" lon="0.94469">
        <ele>217.3</ele>
        <time>2022-02-22T16:50:13+01:00</time>
      </trkpt>
      <trkpt lat="44.32199" lon="0.94483">
        <ele>218.3</ele>
        <time>2022-02-22T16:50:23+01:00</time>
      </trkpt>
      <trkpt lat="44.32208" lon="0.94497">
        <ele>218.5</ele>
        <time>2022-02-22T16:50:33+01:00</time>
      </trkpt>
      <trkpt lat="44.32215" lon="0.94514">
        <ele>218</ele>
        <time>2022-02-22T16:50:45+01:00</time>
      </trkpt>
      <trkpt lat="44.32224" lon="0.9453">
        <ele>217</ele>
        <time>2022-02-22T16:50:54+01:00</time>
      </trkpt>
      <trkpt lat="44.32233" lon="0.94543">
        <ele>216.4</ele>
        <time>2022-02-22T16:51:07+01:00</time>
      </trkpt>
      <trkpt lat="44.32241" lon="0.9456">
        <ele>215.3</ele>
        <time>2022-02-22T16:51:20+01:00</time>
      </trkpt>
      <trkpt lat="44.32254" lon="0.94569">
        <ele>213.8</ele>
        <time>2022-02-22T16:51:29+01:00</time>
      </trkpt>
      <trkpt lat="44.32267" lon="0.94576">
        <ele>212.8</ele>
        <time>2022-02-22T16:51:40+01:00</time>
      </trkpt>
      <trkpt lat="44.3228" lon="0.94571">
        <ele>212.3</ele>
        <time>2022-02-22T16:51:49+01:00</time>
      </trkpt>
      <trkpt lat="44.32292" lon="0.94561">
        <ele>212.2</ele>
        <time>2022-02-22T16:51:58+01:00</time>
      </trkpt>
      <trkpt lat="44.32301" lon="0.94547">
        <ele>212.6</ele>
        <time>2022-02-22T16:52:09+01:00</time>
      </trkpt>
      <trkpt lat="44.32309" lon="0.94532">
        <ele>212.8</ele>
        <time>2022-02-22T16:52:21+01:00</time>
      </trkpt>
      <trkpt lat="44.32321" lon="0.94521">
        <ele>213.4</ele>
        <time>2022-02-22T16:52:30+01:00</time>
      </trkpt>
      <trkpt lat="44.32332" lon="0.9451">
        <ele>213.7</ele>
        <time>2022-02-22T16:52:41+01:00</time>
      </trkpt>
      <trkpt lat="44.32344" lon="0.94501">
        <ele>214</ele>
        <time>2022-02-22T16:52:54+01:00</time>
      </trkpt>
    </trkseg>
  </trk>
</gpx>